sensor_id;sensor_type;location;lat;lon;timestamp;pressure;altitude;pressure_sealevel;temperature;humidity
7930;BME280;4010;42.698;23.124;2023-04-25T00:02:24;118349.16;;;-140.64;100.00
7930;BME280;4010;42.698;23.124;2023-04-25T00:04:51;118349.16;;;-140.64;100.00
7930;BME280;4010;42.698;23.124;2023-04-25T00:07:19;118349.16;;;-140.64;100.00
7930;BME280;4010;42.698;23.124;2023-04-25T00:09:46;118349.16;;;-140.64;100.00
7930;BME280;4010;42.698;23.124;2023-04-25T00:12:13;118349.16;;;-140.64;100.00
7930;BME280;4010;42.698;23.124;2023-04-25T00:14:40;118349.16;;;-140.64;100.00
7930;BME280;4010;42.698;23.124;2023-04-25T00:17:07;118349.16;;;-140.64;100.00
7930;BME280;4010;42.698;23.124;2023-04-25T00:19:34;118349.16;;;-140.64;100.00
7930;BME280;4010;42.698;23.124;2023-04-25T00:22:03;118349.16;;;-140.64;100.00
7930;BME280;4010;42.698;23.124;2023-04-25T00:24:32;118349.16;;;-140.64;100.00
7930;BME280;4010;42.698;23.124;2023-04-25T00:26:58;118349.16;;;-140.64;100.00
7930;BME280;4010;42.698;23.124;2023-04-25T00:29:25;118349.16;;;-140.64;100.00
7930;BME280;4010;42.698;23.124;2023-04-25T00:31:52;118349.16;;;-140.64;100.00
7930;BME280;4010;42.698;23.124;2023-04-25T00:34:18;118349.16;;;-140.64;100.00
7930;BME280;4010;42.698;23.124;2023-04-25T00:36:45;118349.16;;;-140.64;100.00
7930;BME280;4010;42.698;23.124;2023-04-25T00:39:12;118349.16;;;-140.64;100.00
7930;BME280;4010;42.698;23.124;2023-04-25T00:41:40;118349.16;;;-140.64;100.00
7930;BME280;4010;42.698;23.124;2023-04-25T00:44:08;118349.16;;;-140.64;100.00
7930;BME280;4010;42.698;23.124;2023-04-25T00:46:36;118349.16;;;-140.64;100.00
7930;BME280;4010;42.698;23.124;2023-04-25T00:49:03;118349.16;;;-140.64;100.00
7930;BME280;4010;42.698;23.124;2023-04-25T00:51:30;118349.16;;;-140.64;100.00
7930;BME280;4010;42.698;23.124;2023-04-25T00:53:57;118349.16;;;-140.64;100.00
7930;BME280;4010;42.698;23.124;2023-04-25T00:56:24;118349.16;;;-140.64;100.00
7930;BME280;4010;42.698;23.124;2023-04-25T00:58:53;118349.16;;;-140.64;100.00
7930;BME280;4010;42.698;23.124;2023-04-25T01:01:21;118349.16;;;-140.64;100.00
7930;BME280;4010;42.698;23.124;2023-04-25T01:03:49;118349.16;;;-140.64;100.00
7930;BME280;4010;42.698;23.124;2023-04-25T01:06:16;118349.16;;;-140.64;100.00
7930;BME280;4010;42.698;23.124;2023-04-25T01:08:43;118349.16;;;-140.64;100.00
7930;BME280;4010;42.698;23.124;2023-04-25T01:11:10;118349.16;;;-140.64;100.00
7930;BME280;4010;42.698;23.124;2023-04-25T01:13:36;118349.16;;;-140.64;100.00
7930;BME280;4010;42.698;23.124;2023-04-25T01:16:05;118349.16;;;-140.64;100.00
7930;BME280;4010;42.698;23.124;2023-04-25T01:18:32;118349.16;;;-140.64;100.00
7930;BME280;4010;42.698;23.124;2023-04-25T01:21:07;118349.16;;;-140.64;100.00
7930;BME280;4010;42.698;23.124;2023-04-25T01:23:35;118349.16;;;-140.64;100.00
7930;BME280;4010;42.698;23.124;2023-04-25T01:26:03;118349.16;;;-140.64;100.00
7930;BME280;4010;42.698;23.124;2023-04-25T01:28:30;118349.16;;;-140.64;100.00
7930;BME280;4010;42.698;23.124;2023-04-25T01:30:57;118349.16;;;-140.64;100.00
7930;BME280;4010;42.698;23.124;2023-04-25T01:33:24;118349.16;;;-140.64;100.00
7930;BME280;4010;42.698;23.124;2023-04-25T01:35:51;118349.16;;;-140.64;100.00
7930;BME280;4010;42.698;23.124;2023-04-25T01:38:19;118349.16;;;-140.64;100.00
7930;BME280;4010;42.698;23.124;2023-04-25T01:40:46;118349.16;;;-140.64;100.00
7930;BME280;4010;42.698;23.124;2023-04-25T01:43:13;113612.78;;;-140.64;100.00
7930;BME280;4010;42.698;23.124;2023-04-25T01:45:40;110457.34;;;-140.64;100.00
7930;BME280;4010;42.698;23.124;2023-04-25T01:48:07;110457.34;;;-140.64;100.00
7930;BME280;4010;42.698;23.124;2023-04-25T01:50:34;111245.94;;;-140.64;100.00
7930;BME280;4010;42.698;23.124;2023-04-25T01:53:00;115265.56;;;-140.64;100.00
7930;BME280;4010;42.698;23.124;2023-04-25T01:55:29;103892.72;;;-140.64;100.00
7930;BME280;4010;42.698;23.124;2023-04-25T01:57:56;94984.63;;;-140.64;100.00
7930;BME280;4010;42.698;23.124;2023-04-25T02:00:23;93938.09;;;-140.64;100.00
7930;BME280;4010;42.698;23.124;2023-04-25T02:02:50;87665.66;;;-140.64;100.00
7930;BME280;4010;42.698;23.124;2023-04-25T02:05:19;82968.78;;;-140.64;100.00
7930;BME280;4010;42.698;23.124;2023-04-25T02:07:47;83490.34;;;-140.64;100.00
7930;BME280;4010;42.698;23.124;2023-04-25T02:10:14;83490.34;;;-140.64;100.00
7930;BME280;4010;42.698;23.124;2023-04-25T02:12:42;85577.38;;;-140.64;100.00
7930;BME280;4010;42.698;23.124;2023-04-25T02:15:09;83751.16;;;-140.64;100.00
7930;BME280;4010;42.698;23.124;2023-04-25T02:17:36;84272.84;;;-140.64;100.00
7930;BME280;4010;42.698;23.124;2023-04-25T02:20:03;82186.59;;;-140.64;100.00
7930;BME280;4010;42.698;23.124;2023-04-25T02:22:30;81665.25;;;-140.64;100.00
7930;BME280;4010;42.698;23.124;2023-04-25T02:24:57;80362.19;;;-140.64;100.00
7930;BME280;4010;42.698;23.124;2023-04-25T02:27:23;79580.59;;;-140.64;100.00
7930;BME280;4010;42.698;23.124;2023-04-25T02:29:51;80883.34;;;-140.64;100.00
7930;BME280;4010;42.698;23.124;2023-04-25T02:32:18;81404.59;;;-140.64;100.00
7930;BME280;4010;42.698;23.124;2023-04-25T02:34:45;85055.50;;;-140.64;100.00
7930;BME280;4010;42.698;23.124;2023-04-25T02:37:13;83751.16;;;-140.64;100.00
7930;BME280;4010;42.698;23.124;2023-04-25T02:39:40;85838.34;;;-140.64;100.00
7930;BME280;4010;42.698;23.124;2023-04-25T02:42:06;86360.34;;;-140.64;100.00
7930;BME280;4010;42.698;23.124;2023-04-25T02:44:33;88449.09;;;-140.64;100.00
7930;BME280;4010;42.698;23.124;2023-04-25T02:47:01;87926.78;;;-140.64;100.00
7930;BME280;4010;42.698;23.124;2023-04-25T02:49:28;86360.34;;;-140.64;100.00
7930;BME280;4010;42.698;23.124;2023-04-25T02:51:54;88449.09;;;-140.64;100.00
7930;BME280;4010;42.698;23.124;2023-04-25T02:54:21;89755.22;;;-140.64;100.00
7930;BME280;4010;42.698;23.124;2023-04-25T02:56:48;88449.09;;;-140.64;100.00
7930;BME280;4010;42.698;23.124;2023-04-25T02:59:15;86360.34;;;-140.64;100.00
7930;BME280;4010;42.698;23.124;2023-04-25T03:01:41;87665.66;;;-140.64;100.00
7930;BME280;4010;42.698;23.124;2023-04-25T03:04:09;90277.78;;;-140.64;100.00
7930;BME280;4010;42.698;23.124;2023-04-25T03:06:36;90800.47;;;-140.64;100.00
7930;BME280;4010;42.698;23.124;2023-04-25T03:09:03;94984.63;;;-140.64;100.00
7930;BME280;4010;42.698;23.124;2023-04-25T03:11:29;92368.94;;;-140.64;100.00
7930;BME280;4010;42.698;23.124;2023-04-25T03:13:56;89232.72;;;-140.64;100.00
7930;BME280;4010;42.698;23.124;2023-04-25T03:16:23;87665.66;;;-140.64;100.00
7930;BME280;4010;42.698;23.124;2023-04-25T03:18:50;88449.09;;;-140.64;100.00
7930;BME280;4010;42.698;23.124;2023-04-25T03:21:18;87143.47;;;-140.64;100.00
7930;BME280;4010;42.698;23.124;2023-04-25T03:23:45;88187.94;;;-140.64;100.00
7930;BME280;4010;42.698;23.124;2023-04-25T03:26:11;86621.34;;;-140.64;100.00
7930;BME280;4010;42.698;23.124;2023-04-25T03:28:38;85838.34;;;-140.64;100.00
7930;BME280;4010;42.698;23.124;2023-04-25T03:31:05;88187.94;;;-140.64;100.00
7930;BME280;4010;42.698;23.124;2023-04-25T03:33:32;88449.09;;;-140.64;100.00
7930;BME280;4010;42.698;23.124;2023-04-25T03:35:58;91584.59;;;-140.64;100.00
7930;BME280;4010;42.698;23.124;2023-04-25T03:38:26;95508.00;;;-140.64;100.00
7930;BME280;4010;42.698;23.124;2023-04-25T03:40:53;102581.28;;;-140.64;100.00
7930;BME280;4010;42.698;23.124;2023-04-25T03:43:21;102056.84;;;-140.64;100.00
7930;BME280;4010;42.698;23.124;2023-04-25T03:45:48;107042.22;;;-140.64;100.00
7930;BME280;4010;42.698;23.124;2023-04-25T03:48:14;111508.84;;;-140.64;100.00
7930;BME280;4010;42.698;23.124;2023-04-25T03:50:41;118349.16;;;-140.64;100.00
7930;BME280;4010;42.698;23.124;2023-04-25T03:53:08;118349.16;;;-140.64;100.00
7930;BME280;4010;42.698;23.124;2023-04-25T03:55:36;118349.16;;;-140.64;100.00
7930;BME280;4010;42.698;23.124;2023-04-25T03:58:03;118349.16;;;-140.64;100.00
7930;BME280;4010;42.698;23.124;2023-04-25T04:00:30;118349.16;;;-140.64;100.00
7930;BME280;4010;42.698;23.124;2023-04-25T04:02:56;118349.16;;;-140.64;100.00
7930;BME280;4010;42.698;23.124;2023-04-25T04:05:23;118349.16;;;-140.64;100.00
7930;BME280;4010;42.698;23.124;2023-04-25T04:07:50;118349.16;;;-140.64;100.00
7930;BME280;4010;42.698;23.124;2023-04-25T04:10:16;118349.16;;;-140.64;100.00
7930;BME280;4010;42.698;23.124;2023-04-25T04:12:44;118349.16;;;-140.64;100.00
7930;BME280;4010;42.698;23.124;2023-04-25T04:15:11;118349.16;;;-140.64;100.00
7930;BME280;4010;42.698;23.124;2023-04-25T04:17:38;118349.16;;;-140.64;100.00
7930;BME280;4010;42.698;23.124;2023-04-25T04:20:06;118349.16;;;-140.64;100.00
7930;BME280;4010;42.698;23.124;2023-04-25T04:22:34;118349.16;;;-140.64;100.00
7930;BME280;4010;42.698;23.124;2023-04-25T04:25:00;118349.16;;;-140.64;100.00
7930;BME280;4010;42.698;23.124;2023-04-25T04:27:27;118349.16;;;-140.64;100.00
7930;BME280;4010;42.698;23.124;2023-04-25T04:29:56;118349.16;;;-140.64;100.00
7930;BME280;4010;42.698;23.124;2023-04-25T04:32:23;118349.16;;;-140.64;100.00
7930;BME280;4010;42.698;23.124;2023-04-25T04:34:50;118349.16;;;-140.64;100.00
7930;BME280;4010;42.698;23.124;2023-04-25T04:37:17;118349.16;;;-140.64;100.00
7930;BME280;4010;42.698;23.124;2023-04-25T04:39:44;118349.16;;;-140.64;100.00
7930;BME280;4010;42.698;23.124;2023-04-25T04:42:11;118349.16;;;-140.64;100.00
7930;BME280;4010;42.698;23.124;2023-04-25T04:44:38;118349.16;;;-140.64;100.00
7930;BME280;4010;42.698;23.124;2023-04-25T04:47:06;118349.16;;;-140.64;100.00
7930;BME280;4010;42.698;23.124;2023-04-25T04:49:33;118349.16;;;-140.64;100.00
7930;BME280;4010;42.698;23.124;2023-04-25T04:52:00;118349.16;;;-140.64;100.00
7930;BME280;4010;42.698;23.124;2023-04-25T04:54:27;118349.16;;;-140.64;100.00
7930;BME280;4010;42.698;23.124;2023-04-25T04:56:53;118349.16;;;-140.64;100.00
7930;BME280;4010;42.698;23.124;2023-04-25T04:59:20;118349.16;;;-140.64;100.00
7930;BME280;4010;42.698;23.124;2023-04-25T05:01:47;118349.16;;;-140.64;100.00
7930;BME280;4010;42.698;23.124;2023-04-25T05:04:15;118349.16;;;-140.64;100.00
7930;BME280;4010;42.698;23.124;2023-04-25T05:06:41;118349.16;;;-140.64;100.00
7930;BME280;4010;42.698;23.124;2023-04-25T05:09:09;118349.16;;;-140.64;100.00
7930;BME280;4010;42.698;23.124;2023-04-25T05:11:36;118349.16;;;-140.64;100.00
7930;BME280;4010;42.698;23.124;2023-04-25T05:14:02;118349.16;;;-140.64;100.00
7930;BME280;4010;42.698;23.124;2023-04-25T05:16:29;118349.16;;;-140.64;100.00
7930;BME280;4010;42.698;23.124;2023-04-25T05:18:56;118349.16;;;-140.64;100.00
7930;BME280;4010;42.698;23.124;2023-04-25T05:21:24;118349.16;;;-140.64;100.00
7930;BME280;4010;42.698;23.124;2023-04-25T05:23:50;118349.16;;;-140.64;100.00
7930;BME280;4010;42.698;23.124;2023-04-25T05:26:17;118349.16;;;-140.64;100.00
7930;BME280;4010;42.698;23.124;2023-04-25T05:28:44;118349.16;;;-140.64;100.00
7930;BME280;4010;42.698;23.124;2023-04-25T05:31:11;118349.16;;;-140.64;100.00
7930;BME280;4010;42.698;23.124;2023-04-25T05:33:38;118349.16;;;-140.64;100.00
7930;BME280;4010;42.698;23.124;2023-04-25T05:36:05;118349.16;;;-140.64;100.00
7930;BME280;4010;42.698;23.124;2023-04-25T05:38:33;118349.16;;;-140.64;100.00
7930;BME280;4010;42.698;23.124;2023-04-25T05:41:00;118349.16;;;-140.64;100.00
7930;BME280;4010;42.698;23.124;2023-04-25T05:43:27;118349.16;;;-140.64;100.00
7930;BME280;4010;42.698;23.124;2023-04-25T05:45:54;118349.16;;;-140.64;100.00
7930;BME280;4010;42.698;23.124;2023-04-25T05:48:20;118349.16;;;-140.64;100.00
7930;BME280;4010;42.698;23.124;2023-04-25T05:50:47;118349.16;;;-140.64;100.00
7930;BME280;4010;42.698;23.124;2023-04-25T05:53:14;118349.16;;;-140.64;100.00
7930;BME280;4010;42.698;23.124;2023-04-25T05:55:42;118349.16;;;-140.64;100.00
7930;BME280;4010;42.698;23.124;2023-04-25T05:58:09;118349.16;;;-140.64;100.00
7930;BME280;4010;42.698;23.124;2023-04-25T06:00:35;118349.16;;;-140.64;100.00
7930;BME280;4010;42.698;23.124;2023-04-25T06:03:02;118349.16;;;-140.64;100.00
7930;BME280;4010;42.698;23.124;2023-04-25T06:05:29;118349.16;;;-140.64;98.74
7930;BME280;4010;42.698;23.124;2023-04-25T06:07:56;118349.16;;;-140.64;98.89
7930;BME280;4010;42.698;23.124;2023-04-25T06:10:23;118349.16;;;-140.64;95.45
7930;BME280;4010;42.698;23.124;2023-04-25T06:12:51;118349.16;;;-140.64;91.31
7930;BME280;4010;42.698;23.124;2023-04-25T06:15:18;118349.16;;;-140.64;91.50
7930;BME280;4010;42.698;23.124;2023-04-25T06:17:45;118349.16;;;-140.64;95.07
7930;BME280;4010;42.698;23.124;2023-04-25T06:20:12;118349.16;;;-140.64;95.72
7930;BME280;4010;42.698;23.124;2023-04-25T06:22:38;118349.16;;;-140.64;96.64
7930;BME280;4010;42.698;23.124;2023-04-25T06:25:05;118349.16;;;-140.64;96.87
7930;BME280;4010;42.698;23.124;2023-04-25T06:27:32;118349.16;;;-140.64;97.72
7930;BME280;4010;42.698;23.124;2023-04-25T06:30:00;118349.16;;;-140.64;92.18
7930;BME280;4010;42.698;23.124;2023-04-25T06:32:27;118349.16;;;-140.64;94.07
7930;BME280;4010;42.698;23.124;2023-04-25T06:34:55;118349.16;;;-140.64;94.44
7930;BME280;4010;42.698;23.124;2023-04-25T06:37:22;118349.16;;;-140.64;95.15
7930;BME280;4010;42.698;23.124;2023-04-25T06:39:48;118349.16;;;-140.64;96.15
7930;BME280;4010;42.698;23.124;2023-04-25T06:42:15;118349.16;;;-140.64;88.13
7930;BME280;4010;42.698;23.124;2023-04-25T06:44:41;118349.16;;;-140.64;84.54
7930;BME280;4010;42.698;23.124;2023-04-25T06:47:09;118349.16;;;-140.64;83.57
7930;BME280;4010;42.698;23.124;2023-04-25T06:49:36;118349.16;;;-140.64;85.24
7930;BME280;4010;42.698;23.124;2023-04-25T06:52:03;118349.16;;;-140.64;86.28
7930;BME280;4010;42.698;23.124;2023-04-25T06:54:30;118349.16;;;-140.64;88.05
7930;BME280;4010;42.698;23.124;2023-04-25T06:56:57;118349.16;;;-140.64;92.04
7930;BME280;4010;42.698;23.124;2023-04-25T06:59:23;118349.16;;;-140.64;91.30
7930;BME280;4010;42.698;23.124;2023-04-25T07:01:50;118349.16;;;-140.64;92.34
7930;BME280;4010;42.698;23.124;2023-04-25T07:04:18;118349.16;;;-140.64;91.38
7930;BME280;4010;42.698;23.124;2023-04-25T07:06:45;118349.16;;;-140.64;91.72
7930;BME280;4010;42.698;23.124;2023-04-25T07:09:13;118349.16;;;-140.64;92.61
7930;BME280;4010;42.698;23.124;2023-04-25T07:11:40;118349.16;;;-140.64;87.72
7930;BME280;4010;42.698;23.124;2023-04-25T07:14:06;118349.16;;;-140.64;84.84
7930;BME280;4010;42.698;23.124;2023-04-25T07:16:33;118349.16;;;-140.64;83.10
7930;BME280;4010;42.698;23.124;2023-04-25T07:19:00;118349.16;;;-140.64;83.44
7930;BME280;4010;42.698;23.124;2023-04-25T07:21:28;118349.16;;;-140.64;81.21
7930;BME280;4010;42.698;23.124;2023-04-25T07:23:56;118349.16;;;-140.64;79.71
7930;BME280;4010;42.698;23.124;2023-04-25T07:26:22;118349.16;;;-140.64;77.82
7930;BME280;4010;42.698;23.124;2023-04-25T07:28:49;118349.16;;;-140.64;76.86
7930;BME280;4010;42.698;23.124;2023-04-25T07:31:16;118349.16;;;-140.64;76.16
7930;BME280;4010;42.698;23.124;2023-04-25T07:33:43;118349.16;;;-140.64;77.68
7930;BME280;4010;42.698;23.124;2023-04-25T07:36:11;118349.16;;;-140.64;74.20
7930;BME280;4010;42.698;23.124;2023-04-25T07:38:39;118349.16;;;-140.64;75.47
7930;BME280;4010;42.698;23.124;2023-04-25T07:41:06;118349.16;;;-140.64;75.34
7930;BME280;4010;42.698;23.124;2023-04-25T07:43:33;118349.16;;;-140.64;78.27
7930;BME280;4010;42.698;23.124;2023-04-25T07:45:59;118349.16;;;-140.64;73.77
7930;BME280;4010;42.698;23.124;2023-04-25T07:48:26;118349.16;;;-140.64;71.30
7930;BME280;4010;42.698;23.124;2023-04-25T07:50:53;118349.16;;;-140.64;70.12
7930;BME280;4010;42.698;23.124;2023-04-25T07:53:19;118349.16;;;-140.64;69.96
7930;BME280;4010;42.698;23.124;2023-04-25T07:55:48;118349.16;;;-140.64;70.24
7930;BME280;4010;42.698;23.124;2023-04-25T07:58:14;118349.16;;;-140.64;68.44
7930;BME280;4010;42.698;23.124;2023-04-25T08:00:41;118349.16;;;-140.64;66.94
7930;BME280;4010;42.698;23.124;2023-04-25T08:03:09;118349.16;;;-140.64;69.28
7930;BME280;4010;42.698;23.124;2023-04-25T08:05:36;118349.16;;;-140.64;68.03
7930;BME280;4010;42.698;23.124;2023-04-25T08:08:02;118349.16;;;-140.64;68.81
7930;BME280;4010;42.698;23.124;2023-04-25T08:10:31;118349.16;;;-140.64;69.43
7930;BME280;4010;42.698;23.124;2023-04-25T08:12:59;118349.16;;;-140.64;69.23
7930;BME280;4010;42.698;23.124;2023-04-25T08:15:26;118349.16;;;-140.64;71.79
7930;BME280;4010;42.698;23.124;2023-04-25T08:17:53;118349.16;;;-140.64;71.81
7930;BME280;4010;42.698;23.124;2023-04-25T08:20:20;118349.16;;;-140.64;73.97
7930;BME280;4010;42.698;23.124;2023-04-25T08:22:46;118349.16;;;-140.64;76.06
7930;BME280;4010;42.698;23.124;2023-04-25T08:25:14;118349.16;;;-140.64;78.51
7930;BME280;4010;42.698;23.124;2023-04-25T08:27:40;118349.16;;;-140.64;71.76
7930;BME280;4010;42.698;23.124;2023-04-25T08:30:09;118349.16;;;-140.64;76.03
7930;BME280;4010;42.698;23.124;2023-04-25T08:32:36;118349.16;;;-140.64;70.41
7930;BME280;4010;42.698;23.124;2023-04-25T08:35:04;118349.16;;;-140.64;73.33
7930;BME280;4010;42.698;23.124;2023-04-25T08:37:32;118349.16;;;-140.64;67.46
7930;BME280;4010;42.698;23.124;2023-04-25T08:39:58;118349.16;;;-140.64;65.72
7930;BME280;4010;42.698;23.124;2023-04-25T08:42:26;118349.16;;;-140.64;64.13
7930;BME280;4010;42.698;23.124;2023-04-25T08:44:54;118349.16;;;-140.64;65.70
7930;BME280;4010;42.698;23.124;2023-04-25T08:47:23;118349.16;;;-140.64;64.53
7930;BME280;4010;42.698;23.124;2023-04-25T08:49:53;118349.16;;;-140.64;63.87
7930;BME280;4010;42.698;23.124;2023-04-25T08:52:22;118349.16;;;-140.64;60.28
7930;BME280;4010;42.698;23.124;2023-04-25T08:54:49;118349.16;;;-140.64;60.41
7930;BME280;4010;42.698;23.124;2023-04-25T08:57:18;118349.16;;;-140.64;60.20
7930;BME280;4010;42.698;23.124;2023-04-25T08:59:45;118349.16;;;-140.64;60.21
7930;BME280;4010;42.698;23.124;2023-04-25T09:02:13;118349.16;;;-140.64;60.22
7930;BME280;4010;42.698;23.124;2023-04-25T09:04:44;118349.16;;;-140.64;64.24
7930;BME280;4010;42.698;23.124;2023-04-25T09:07:11;118349.16;;;-140.64;63.82
7930;BME280;4010;42.698;23.124;2023-04-25T09:09:37;118349.16;;;-140.64;65.14
7930;BME280;4010;42.698;23.124;2023-04-25T09:12:05;118349.16;;;-140.64;65.26
7930;BME280;4010;42.698;23.124;2023-04-25T09:14:32;118349.16;;;-140.64;61.02
7930;BME280;4010;42.698;23.124;2023-04-25T09:17:00;118349.16;;;-140.64;54.60
7930;BME280;4010;42.698;23.124;2023-04-25T09:19:29;118349.16;;;-140.64;55.27
7930;BME280;4010;42.698;23.124;2023-04-25T09:21:58;118349.16;;;-140.64;52.89
7930;BME280;4010;42.698;23.124;2023-04-25T09:24:39;118349.16;;;-140.64;53.05
7930;BME280;4010;42.698;23.124;2023-04-25T09:27:07;118349.16;;;-140.64;58.16
7930;BME280;4010;42.698;23.124;2023-04-25T09:29:36;118349.16;;;-140.64;58.23
7930;BME280;4010;42.698;23.124;2023-04-25T09:32:17;118349.16;;;-140.64;58.05
7930;BME280;4010;42.698;23.124;2023-04-25T09:34:45;118349.16;;;-140.64;55.01
7930;BME280;4010;42.698;23.124;2023-04-25T09:37:17;118349.16;;;-140.64;51.43
7930;BME280;4010;42.698;23.124;2023-04-25T09:39:45;118349.16;;;-140.64;52.62
7930;BME280;4010;42.698;23.124;2023-04-25T09:42:13;118349.16;;;-140.64;50.83
7930;BME280;4010;42.698;23.124;2023-04-25T09:44:42;118349.16;;;-140.64;52.10
7930;BME280;4010;42.698;23.124;2023-04-25T09:47:10;118349.16;;;-140.64;53.07
7930;BME280;4010;42.698;23.124;2023-04-25T09:49:39;118349.16;;;-140.64;50.83
7930;BME280;4010;42.698;23.124;2023-04-25T09:52:08;118349.16;;;-140.64;55.13
7930;BME280;4010;42.698;23.124;2023-04-25T09:54:36;118349.16;;;-140.64;51.97
7930;BME280;4010;42.698;23.124;2023-04-25T09:57:10;118349.16;;;-140.64;50.94
7930;BME280;4010;42.698;23.124;2023-04-25T09:59:39;118349.16;;;-140.64;53.90
7930;BME280;4010;42.698;23.124;2023-04-25T10:02:07;118349.16;;;-140.64;54.45
7930;BME280;4010;42.698;23.124;2023-04-25T10:04:35;118349.16;;;-140.64;54.72
7930;BME280;4010;42.698;23.124;2023-04-25T10:07:03;118349.16;;;-140.64;52.92
7930;BME280;4010;42.698;23.124;2023-04-25T10:09:32;118349.16;;;-140.64;55.59
7930;BME280;4010;42.698;23.124;2023-04-25T10:12:02;118349.16;;;-140.64;50.00
7930;BME280;4010;42.698;23.124;2023-04-25T10:14:29;118349.16;;;-140.64;47.99
7930;BME280;4010;42.698;23.124;2023-04-25T10:16:57;118349.16;;;-140.64;49.87
7930;BME280;4010;42.698;23.124;2023-04-25T10:19:25;118349.16;;;-140.64;50.64
7930;BME280;4010;42.698;23.124;2023-04-25T10:21:53;118349.16;;;-140.64;53.90
7930;BME280;4010;42.698;23.124;2023-04-25T10:24:21;118349.16;;;-140.64;52.63
7930;BME280;4010;42.698;23.124;2023-04-25T10:26:48;118349.16;;;-140.64;53.13
7930;BME280;4010;42.698;23.124;2023-04-25T10:29:23;118349.16;;;-140.64;55.01
7930;BME280;4010;42.698;23.124;2023-04-25T10:31:50;118349.16;;;-140.64;54.67
7930;BME280;4010;42.698;23.124;2023-04-25T10:34:18;118349.16;;;-140.64;58.52
7930;BME280;4010;42.698;23.124;2023-04-25T10:36:49;118349.16;;;-140.64;60.57
7930;BME280;4010;42.698;23.124;2023-04-25T10:39:22;118349.16;;;-140.64;55.17
7930;BME280;4010;42.698;23.124;2023-04-25T10:41:53;118349.16;;;-140.64;56.33
7930;BME280;4010;42.698;23.124;2023-04-25T10:44:25;118349.16;;;-140.64;54.03
7930;BME280;4010;42.698;23.124;2023-04-25T10:46:54;118349.16;;;-140.64;52.05
7930;BME280;4010;42.698;23.124;2023-04-25T10:49:32;118349.16;;;-140.64;51.46
7930;BME280;4010;42.698;23.124;2023-04-25T10:52:24;118349.16;;;-140.64;52.91
7930;BME280;4010;42.698;23.124;2023-04-25T10:54:52;118349.16;;;-140.64;51.39
7930;BME280;4010;42.698;23.124;2023-04-25T10:57:30;118349.16;;;-140.64;50.09
7930;BME280;4010;42.698;23.124;2023-04-25T11:00:05;118349.16;;;-140.64;52.86
7930;BME280;4010;42.698;23.124;2023-04-25T11:02:37;118349.16;;;-140.64;51.65
7930;BME280;4010;42.698;23.124;2023-04-25T11:05:05;118349.16;;;-140.64;50.74
7930;BME280;4010;42.698;23.124;2023-04-25T11:07:38;118349.16;;;-140.64;52.79
7930;BME280;4010;42.698;23.124;2023-04-25T11:10:06;118349.16;;;-140.64;55.38
7930;BME280;4010;42.698;23.124;2023-04-25T11:12:33;118349.16;;;-140.64;54.93
7930;BME280;4010;42.698;23.124;2023-04-25T11:15:03;118349.16;;;-140.64;57.86
7930;BME280;4010;42.698;23.124;2023-04-25T11:17:30;118349.16;;;-140.64;58.75
7930;BME280;4010;42.698;23.124;2023-04-25T11:19:57;118349.16;;;-140.64;60.89
7930;BME280;4010;42.698;23.124;2023-04-25T11:22:24;118349.16;;;-140.64;63.43
7930;BME280;4010;42.698;23.124;2023-04-25T11:24:51;118349.16;;;-140.64;65.77
7930;BME280;4010;42.698;23.124;2023-04-25T11:27:18;118349.16;;;-140.64;71.73
7930;BME280;4010;42.698;23.124;2023-04-25T11:29:44;118349.16;;;-140.64;79.37
7930;BME280;4010;42.698;23.124;2023-04-25T11:32:15;118349.16;;;-140.64;85.00
7930;BME280;4010;42.698;23.124;2023-04-25T11:34:43;118349.16;;;-140.64;88.88
7930;BME280;4010;42.698;23.124;2023-04-25T11:37:10;118349.16;;;-140.64;93.21
7930;BME280;4010;42.698;23.124;2023-04-25T11:39:42;118349.16;;;-140.64;93.82
7930;BME280;4010;42.698;23.124;2023-04-25T11:42:09;118349.16;;;-140.64;89.95
7930;BME280;4010;42.698;23.124;2023-04-25T11:44:37;118349.16;;;-140.64;86.82
7930;BME280;4010;42.698;23.124;2023-04-25T11:47:04;118349.16;;;-140.64;85.75
7930;BME280;4010;42.698;23.124;2023-04-25T11:49:32;118349.16;;;-140.64;81.52
7930;BME280;4010;42.698;23.124;2023-04-25T11:52:00;118349.16;;;-140.64;87.68
7930;BME280;4010;42.698;23.124;2023-04-25T11:54:27;118349.16;;;-140.64;79.74
7930;BME280;4010;42.698;23.124;2023-04-25T11:56:54;118349.16;;;-140.64;75.50
7930;BME280;4010;42.698;23.124;2023-04-25T11:59:23;118349.16;;;-140.64;75.47
7930;BME280;4010;42.698;23.124;2023-04-25T12:01:50;118349.16;;;-140.64;75.34
7930;BME280;4010;42.698;23.124;2023-04-25T12:04:18;118349.16;;;-140.64;70.82
7930;BME280;4010;42.698;23.124;2023-04-25T12:06:48;118349.16;;;-140.64;69.39
7930;BME280;4010;42.698;23.124;2023-04-25T12:09:17;118349.16;;;-140.64;69.32
7930;BME280;4010;42.698;23.124;2023-04-25T12:11:45;118349.16;;;-140.64;65.68
7930;BME280;4010;42.698;23.124;2023-04-25T12:14:12;118349.16;;;-140.64;64.65
7930;BME280;4010;42.698;23.124;2023-04-25T12:16:43;118349.16;;;-140.64;61.54
7930;BME280;4010;42.698;23.124;2023-04-25T12:19:13;118349.16;;;-140.64;63.88
7930;BME280;4010;42.698;23.124;2023-04-25T12:21:39;118349.16;;;-140.64;68.34
7930;BME280;4010;42.698;23.124;2023-04-25T12:24:12;118349.16;;;-140.64;72.59
7930;BME280;4010;42.698;23.124;2023-04-25T12:26:49;118349.16;;;-140.64;77.17
7930;BME280;4010;42.698;23.124;2023-04-25T12:29:18;118349.16;;;-140.64;79.67
7930;BME280;4010;42.698;23.124;2023-04-25T12:31:44;118349.16;;;-140.64;82.20
7930;BME280;4010;42.698;23.124;2023-04-25T12:34:11;118349.16;;;-140.64;84.29
7930;BME280;4010;42.698;23.124;2023-04-25T12:36:38;118349.16;;;-140.64;83.55
7930;BME280;4010;42.698;23.124;2023-04-25T12:39:05;118349.16;;;-140.64;84.65